createdAt,value
2017-07-14T00:01:35.269Z,69.82
2017-07-14T00:04:04.360Z,70.31
2017-07-14T00:06:33.403Z,70.46
2017-07-14T00:09:02.475Z,70.79
2017-07-14T00:11:31.544Z,70.52
2017-07-14T00:14:00.615Z,70.60
2017-07-14T00:16:29.681Z,70.46
2017-07-14T00:18:58.737Z,70.33
2017-07-14T00:21:27.820Z,71.00
2017-07-14T00:23:56.863Z,70.85
2017-07-14T00:26:26.672Z,70.96
2017-07-14T00:28:55.785Z,71.80
2017-07-14T00:31:24.868Z,71.84
2017-07-14T00:33:53.923Z,72.01
2017-07-14T00:36:22.995Z,72.10
2017-07-14T00:38:52.749Z,71.81
2017-07-14T00:41:21.819Z,71.46
2017-07-14T00:43:50.866Z,72.04
2017-07-14T00:46:19.908Z,72.00
2017-07-14T00:48:49.006Z,71.43
2017-07-14T00:51:18.045Z,71.29
2017-07-14T00:53:47.211Z,71.85
2017-07-14T00:56:16.281Z,70.87
2017-07-14T00:58:45.384Z,70.78
2017-07-14T01:01:14.561Z,70.91
2017-07-14T01:03:43.619Z,72.24
2017-07-14T01:06:13.437Z,72.93
2017-07-14T01:08:42.509Z,72.25
2017-07-14T01:11:12.352Z,71.39
2017-07-14T01:13:42.160Z,71.49
2017-07-14T01:16:11.227Z,72.00
2017-07-14T01:18:41.060Z,72.18
2017-07-14T01:21:10.157Z,71.86
2017-07-14T01:23:39.961Z,72.37
2017-07-14T01:26:09.788Z,71.82
2017-07-14T01:28:39.155Z,72.02
2017-07-14T01:31:08.208Z,72.32
2017-07-14T01:33:37.255Z,72.49
2017-07-14T01:36:07.118Z,72.49
2017-07-14T01:38:36.177Z,72.71
2017-07-14T01:41:06.797Z,72.72
2017-07-14T01:43:36.661Z,72.69
2017-07-14T01:46:05.761Z,73.90
2017-07-14T01:48:34.844Z,72.78
2017-07-14T01:51:03.961Z,73.46
2017-07-14T01:53:33.024Z,73.12
2017-07-14T01:56:02.195Z,72.88
2017-07-14T01:58:31.244Z,73.22
2017-07-14T02:01:00.314Z,73.26
2017-07-14T02:03:29.393Z,72.58
2017-07-14T02:05:59.200Z,73.12
2017-07-14T02:08:28.277Z,73.57
2017-07-14T02:10:57.697Z,73.87
2017-07-14T02:13:26.744Z,74.43
2017-07-14T02:15:55.824Z,74.68
2017-07-14T02:18:24.893Z,75.33
2017-07-14T02:20:53.965Z,75.15
2017-07-14T02:23:23.786Z,75.13
2017-07-14T02:25:53.720Z,75.21
2017-07-14T02:28:22.800Z,75.25
2017-07-14T02:30:52.661Z,75.11
2017-07-14T02:33:21.724Z,75.20
2017-07-14T02:35:50.787Z,75.77
2017-07-14T02:38:19.858Z,75.57
2017-07-14T02:40:48.918Z,76.21
2017-07-14T02:43:17.988Z,76.80
2017-07-14T02:45:47.816Z,76.57
2017-07-14T02:48:16.932Z,76.50
2017-07-14T02:50:46.004Z,76.48
2017-07-14T02:53:15.101Z,77.70
2017-07-14T02:55:44.905Z,77.72
2017-07-14T02:58:13.984Z,78.37
2017-07-14T03:00:43.847Z,78.59
2017-07-14T03:03:12.985Z,78.38
2017-07-14T03:05:42.048Z,78.72
2017-07-14T03:08:11.128Z,78.74
2017-07-14T03:10:40.201Z,78.86
2017-07-14T03:13:09.333Z,78.59
2017-07-14T03:15:38.408Z,78.40
2017-07-14T03:18:07.487Z,78.42
2017-07-14T03:20:37.935Z,78.50
2017-07-14T03:23:07.011Z,78.58
2017-07-14T03:25:36.077Z,78.82
2017-07-14T03:28:05.186Z,79.27
2017-07-14T03:30:34.256Z,79.72
2017-07-14T03:33:03.350Z,79.47
2017-07-14T03:35:32.428Z,79.75
2017-07-14T03:38:01.486Z,79.44
2017-07-14T03:40:30.564Z,79.18
2017-07-14T03:43:00.399Z,79.04
2017-07-14T03:45:29.460Z,79.22
2017-07-14T03:47:58.521Z,79.66
2017-07-14T03:50:27.841Z,79.58
2017-07-14T03:52:56.884Z,79.83
2017-07-14T03:55:25.965Z,80.72
2017-07-14T03:57:56.837Z,80.43
2017-07-14T04:00:26.015Z,80.38
2017-07-14T04:02:55.081Z,80.14
2017-07-14T04:05:24.941Z,80.43
2017-07-14T04:07:53.962Z,80.63
2017-07-14T04:10:23.106Z,80.72
2017-07-14T04:12:52.177Z,80.01
2017-07-14T04:15:22.026Z,81.37
2017-07-14T04:17:51.067Z,81.28
2017-07-14T04:20:20.099Z,80.39
2017-07-14T04:22:49.177Z,80.03
2017-07-14T04:25:19.078Z,80.30
2017-07-14T04:27:48.123Z,80.19
2017-07-14T04:30:17.408Z,80.42
2017-07-14T04:32:46.536Z,79.76
2017-07-14T04:35:15.605Z,79.67
2017-07-14T04:37:44.688Z,80.07
2017-07-14T04:40:13.816Z,79.31
2017-07-14T04:42:42.858Z,79.80
2017-07-14T04:45:11.940Z,79.57
2017-07-14T04:47:40.981Z,79.54
2017-07-14T04:50:10.055Z,78.70
2017-07-14T04:52:39.127Z,78.69
2017-07-14T04:55:08.196Z,78.43
2017-07-14T04:57:37.256Z,78.87
2017-07-14T05:00:06.353Z,79.18
2017-07-14T05:02:35.411Z,78.21
2017-07-14T05:05:04.488Z,77.13
2017-07-14T05:07:35.227Z,76.63
2017-07-14T05:10:04.349Z,76.58
2017-07-14T05:12:33.382Z,76.61
2017-07-14T05:15:02.428Z,76.71
2017-07-14T05:17:31.501Z,77.34
2017-07-14T05:20:00.569Z,76.16
2017-07-14T05:22:29.625Z,75.74
2017-07-14T05:24:59.717Z,75.81
2017-07-14T05:27:28.765Z,75.59
2017-07-14T05:29:57.825Z,75.03
2017-07-14T05:32:26.878Z,74.89
2017-07-14T05:34:55.964Z,74.43
2017-07-14T05:37:25.020Z,74.53
2017-07-14T05:39:54.864Z,73.93
2017-07-14T05:42:23.937Z,74.05
2017-07-14T05:44:53.758Z,73.49
2017-07-14T05:47:22.890Z,73.93
2017-07-14T05:49:52.197Z,73.62
2017-07-14T05:52:21.277Z,73.68
2017-07-14T05:54:50.328Z,73.39
2017-07-14T05:57:20.173Z,72.88
2017-07-14T05:59:49.220Z,73.13
2017-07-14T06:02:19.677Z,72.69
2017-07-14T06:04:48.736Z,72.20
2017-07-14T06:07:17.795Z,71.34
2017-07-14T06:09:46.847Z,71.72
2017-07-14T06:12:16.233Z,71.72
2017-07-14T06:14:45.296Z,72.07
2017-07-14T06:17:14.360Z,71.26
2017-07-14T06:19:43.483Z,71.40
2017-07-14T06:22:12.556Z,71.79
2017-07-14T06:24:41.627Z,71.13
2017-07-14T06:27:11.017Z,70.42
2017-07-14T06:29:40.104Z,70.30
2017-07-14T06:32:09.211Z,69.26
2017-07-14T06:34:38.259Z,69.55
2017-07-14T06:37:07.433Z,70.13
2017-07-14T06:39:36.794Z,69.59
2017-07-14T06:42:05.916Z,67.60
2017-07-14T06:44:34.998Z,65.25
2017-07-14T06:47:04.041Z,65.30
2017-07-14T06:49:33.088Z,63.79
2017-07-14T06:52:02.159Z,63.76
2017-07-14T06:54:31.247Z,64.10
2017-07-14T06:57:00.523Z,62.65
2017-07-14T06:59:29.611Z,62.16
2017-07-14T07:01:58.696Z,61.22
2017-07-14T07:04:27.796Z,59.55
2017-07-14T07:06:56.876Z,61.17
2017-07-14T07:09:25.956Z,59.93
2017-07-14T07:11:55.014Z,57.90
2017-07-14T07:14:24.068Z,57.64
2017-07-14T07:16:53.146Z,56.98
2017-07-14T07:19:22.209Z,56.89
2017-07-14T07:21:51.249Z,59.08
2017-07-14T07:24:20.303Z,58.34
2017-07-14T07:26:49.383Z,55.39
2017-07-14T07:29:18.428Z,57.09
2017-07-14T07:31:47.519Z,53.49
2017-07-14T07:34:16.580Z,53.36
2017-07-14T07:36:45.626Z,52.76
2017-07-14T07:39:14.879Z,52.38
2017-07-14T07:41:43.997Z,53.16
2017-07-14T07:44:13.095Z,50.27
2017-07-14T07:46:48.547Z,52.04
2017-07-14T07:49:22.998Z,50.91
2017-07-14T07:51:52.049Z,51.67
2017-07-14T07:54:21.107Z,50.84
2017-07-14T07:56:50.201Z,49.90
2017-07-14T07:59:19.281Z,48.47
2017-07-14T08:01:48.321Z,50.10
2017-07-14T08:04:17.404Z,48.24
2017-07-14T08:06:46.460Z,48.65
2017-07-14T08:09:15.528Z,49.13
2017-07-14T08:11:44.584Z,48.88
2017-07-14T08:14:13.684Z,47.40
2017-07-14T08:16:42.728Z,47.29
2017-07-14T08:19:11.816Z,48.52
2017-07-14T08:21:40.883Z,48.92
2017-07-14T08:24:10.009Z,45.67
2017-07-14T08:26:39.098Z,45.24
2017-07-14T08:29:08.341Z,45.72
2017-07-14T08:31:37.433Z,45.01
2017-07-14T08:34:06.488Z,45.63
2017-07-14T08:36:35.560Z,45.18
2017-07-14T08:39:04.751Z,44.30
2017-07-14T08:41:33.793Z,42.78
2017-07-14T08:44:02.904Z,43.02
2017-07-14T08:46:31.933Z,40.62
2017-07-14T08:49:00.985Z,42.29
2017-07-14T08:51:30.058Z,43.74
2017-07-14T08:53:59.126Z,41.88
2017-07-14T08:56:28.190Z,42.40
2017-07-14T08:58:57.239Z,41.34
2017-07-14T09:01:26.342Z,42.77
2017-07-14T09:03:55.392Z,41.92
2017-07-14T09:06:24.455Z,42.22
2017-07-14T09:08:53.530Z,42.65
2017-07-14T09:11:22.567Z,41.84
2017-07-14T09:13:51.627Z,40.89
2017-07-14T09:16:20.720Z,42.07
2017-07-14T09:18:49.801Z,42.34
2017-07-14T09:21:18.861Z,40.47
2017-07-14T09:23:47.921Z,40.24
2017-07-14T09:26:16.976Z,39.63
2017-07-14T09:28:46.035Z,38.52
2017-07-14T09:31:15.092Z,38.62
2017-07-14T09:33:44.159Z,39.72
2017-07-14T09:36:13.219Z,39.43
2017-07-14T09:38:42.301Z,40.48
2017-07-14T09:41:11.396Z,40.05
2017-07-14T09:43:40.456Z,40.49
2017-07-14T09:46:09.524Z,40.02
2017-07-14T09:48:38.573Z,40.25
2017-07-14T09:51:07.618Z,39.83
2017-07-14T09:53:36.680Z,39.22
2017-07-14T09:56:05.777Z,40.09
2017-07-14T09:58:34.847Z,37.86
2017-07-14T10:01:03.983Z,40.00
2017-07-14T10:03:33.131Z,38.86
2017-07-14T10:06:02.215Z,38.24
2017-07-14T10:08:31.257Z,37.50
2017-07-14T10:11:00.345Z,38.05
2017-07-14T10:13:29.397Z,38.92
2017-07-14T10:15:58.437Z,36.07
2017-07-14T10:18:27.499Z,37.89
2017-07-14T10:20:56.548Z,37.60
2017-07-14T10:23:25.604Z,36.43
2017-07-14T10:25:54.682Z,35.04
2017-07-14T10:28:23.737Z,33.90
2017-07-14T10:30:52.815Z,36.87
2017-07-14T10:33:21.893Z,36.68
2017-07-14T10:35:50.933Z,37.64
2017-07-14T10:38:20.002Z,39.02
2017-07-14T10:40:49.060Z,37.07
2017-07-14T10:43:18.164Z,37.62
2017-07-14T10:45:47.215Z,35.81
2017-07-14T10:48:16.291Z,36.50
2017-07-14T10:50:45.365Z,34.88
2017-07-14T10:53:14.468Z,36.92
2017-07-14T10:55:43.496Z,35.65
2017-07-14T10:58:12.575Z,35.10
2017-07-14T11:00:41.673Z,36.04
2017-07-14T11:03:10.740Z,35.16
2017-07-14T11:05:39.786Z,36.21
2017-07-14T11:08:09.039Z,37.36
2017-07-14T11:10:38.114Z,37.89
2017-07-14T11:13:07.172Z,38.33
2017-07-14T11:15:36.273Z,38.22
2017-07-14T11:18:05.355Z,37.40
2017-07-14T11:20:34.416Z,37.81
2017-07-14T11:23:03.533Z,37.63
2017-07-14T11:25:32.567Z,38.88
2017-07-14T11:28:01.648Z,37.90
2017-07-14T11:30:30.706Z,37.48
2017-07-14T11:32:59.960Z,37.37
2017-07-14T11:35:29.045Z,37.13
2017-07-14T11:37:58.316Z,38.96
2017-07-14T11:40:27.376Z,38.85
2017-07-14T11:42:56.444Z,38.77
2017-07-14T11:45:25.744Z,40.76
2017-07-14T11:47:54.788Z,39.69
2017-07-14T11:50:23.888Z,39.59
2017-07-14T11:52:52.977Z,38.45
2017-07-14T11:55:22.048Z,39.29
2017-07-14T11:57:51.088Z,38.96
2017-07-14T12:00:20.173Z,39.18
2017-07-14T12:02:49.229Z,39.27
2017-07-14T12:05:18.333Z,39.87
2017-07-14T12:07:47.390Z,38.64
2017-07-14T12:10:16.459Z,41.45
2017-07-14T12:12:45.533Z,38.20
2017-07-14T12:15:14.585Z,38.62
2017-07-14T12:17:43.639Z,39.62
2017-07-14T12:20:12.699Z,38.35
2017-07-14T12:22:41.752Z,38.57
2017-07-14T12:25:10.872Z,37.70
2017-07-14T12:27:39.960Z,38.04
2017-07-14T12:30:09.033Z,38.33
2017-07-14T12:32:38.081Z,38.54
2017-07-14T12:35:07.169Z,38.99
2017-07-14T12:37:36.237Z,38.65
2017-07-14T12:40:05.314Z,40.24
2017-07-14T12:42:34.355Z,38.90
2017-07-14T12:45:03.521Z,39.42
2017-07-14T12:47:32.587Z,39.32
2017-07-14T12:50:01.651Z,40.07
2017-07-14T12:52:31.201Z,40.11
2017-07-14T12:55:00.264Z,40.12
2017-07-14T12:57:29.335Z,40.35
2017-07-14T12:59:58.388Z,40.59
2017-07-14T13:02:27.469Z,40.39
2017-07-14T13:04:56.679Z,42.59
2017-07-14T13:07:25.740Z,43.72
2017-07-14T13:09:54.835Z,45.19
2017-07-14T13:12:23.871Z,45.17
2017-07-14T13:14:52.930Z,44.64
2017-07-14T13:17:22.023Z,45.17
2017-07-14T13:19:51.072Z,43.91
2017-07-14T13:22:20.112Z,44.58
2017-07-14T13:24:49.231Z,44.98
2017-07-14T13:27:18.273Z,44.40
2017-07-14T13:29:47.369Z,44.62
2017-07-14T13:32:16.457Z,44.69
2017-07-14T13:34:45.497Z,44.06
2017-07-14T13:37:14.615Z,43.79
2017-07-14T13:39:43.679Z,44.90
2017-07-14T13:42:12.949Z,45.05
2017-07-14T13:44:42.018Z,45.01
2017-07-14T13:47:11.105Z,44.81
2017-07-14T13:49:40.154Z,46.30
2017-07-14T13:52:09.189Z,48.42
2017-07-14T13:54:38.248Z,49.61
2017-07-14T13:57:07.325Z,51.39
2017-07-14T13:59:36.377Z,52.51
2017-07-14T14:02:05.506Z,54.28
2017-07-14T14:04:34.596Z,56.84
2017-07-14T14:07:03.659Z,62.03
2017-07-14T14:09:32.741Z,66.69
2017-07-14T14:12:01.841Z,68.42
2017-07-14T14:14:30.947Z,71.69
2017-07-14T14:16:59.998Z,73.21
2017-07-14T14:19:29.100Z,73.89
2017-07-14T14:21:58.165Z,74.02
2017-07-14T14:24:27.242Z,72.81
2017-07-14T14:26:56.334Z,74.27
2017-07-14T14:29:25.692Z,76.06
2017-07-14T14:31:54.757Z,74.73
2017-07-14T14:34:23.821Z,75.36
2017-07-14T14:36:52.881Z,74.93
2017-07-14T14:39:21.976Z,74.69
2017-07-14T14:41:51.058Z,75.53
2017-07-14T14:44:20.122Z,74.92
2017-07-14T14:46:49.196Z,74.84
2017-07-14T14:49:18.264Z,72.93
2017-07-14T14:51:47.379Z,74.97
2017-07-14T14:54:16.486Z,74.16
2017-07-14T14:56:45.561Z,75.64
2017-07-14T14:59:14.656Z,75.20
2017-07-14T15:01:43.718Z,72.72
2017-07-14T15:04:12.818Z,72.65
2017-07-14T15:06:41.893Z,72.32
2017-07-14T15:09:10.957Z,72.64
2017-07-14T15:11:40.038Z,73.07
2017-07-14T15:14:09.131Z,70.58
2017-07-14T15:16:38.200Z,71.72
2017-07-14T15:19:07.262Z,70.76
2017-07-14T15:21:36.363Z,69.91
2017-07-14T15:24:05.406Z,70.08
2017-07-14T15:26:34.472Z,70.97
2017-07-14T15:29:03.553Z,70.27
2017-07-14T15:31:32.634Z,70.08
2017-07-14T15:34:01.761Z,71.06
2017-07-14T15:36:30.840Z,72.04
2017-07-14T15:38:59.887Z,71.92
2017-07-14T15:41:28.984Z,72.00
2017-07-14T15:43:58.097Z,73.03
2017-07-14T15:46:27.187Z,72.98
2017-07-14T15:48:56.233Z,73.72
2017-07-14T15:51:25.288Z,73.83
2017-07-14T15:53:54.373Z,74.11
2017-07-14T15:56:23.435Z,74.51
2017-07-14T15:58:52.491Z,74.85
2017-07-14T16:01:21.549Z,75.19
2017-07-14T16:03:50.616Z,75.35
2017-07-14T16:06:19.698Z,77.08
2017-07-14T16:08:48.847Z,77.38
2017-07-14T16:11:17.952Z,77.60
2017-07-14T16:13:47.018Z,76.81
2017-07-14T16:16:16.141Z,77.49
2017-07-14T16:18:45.218Z,77.18
2017-07-14T16:21:14.397Z,76.97
2017-07-14T16:23:43.468Z,75.67
2017-07-14T16:26:12.556Z,75.29
2017-07-14T16:28:41.616Z,77.21
2017-07-14T16:31:10.700Z,74.67
2017-07-14T16:33:39.797Z,74.67
2017-07-14T16:36:08.952Z,74.34
2017-07-14T16:38:38.028Z,74.86
2017-07-14T16:41:07.108Z,75.92
2017-07-14T16:43:36.173Z,77.46
2017-07-14T16:46:05.256Z,77.10
2017-07-14T16:48:34.302Z,77.14
2017-07-14T16:51:03.386Z,77.44
2017-07-14T16:53:32.508Z,77.93
2017-07-14T16:56:01.548Z,78.46
2017-07-14T16:58:30.616Z,78.53
2017-07-14T17:00:59.679Z,78.82
2017-07-14T17:03:28.709Z,78.27
2017-07-14T17:05:57.801Z,78.35
2017-07-14T17:08:26.894Z,77.77
2017-07-14T17:10:55.970Z,77.63
2017-07-14T17:13:25.044Z,76.99
2017-07-14T17:15:54.115Z,77.48
2017-07-14T17:18:23.197Z,77.42
2017-07-14T17:20:52.257Z,76.23
2017-07-14T17:23:21.316Z,73.48
2017-07-14T17:25:50.380Z,74.14
2017-07-14T17:28:19.649Z,74.62
2017-07-14T17:30:48.720Z,73.27
2017-07-14T17:33:17.783Z,74.94
2017-07-14T17:35:47.867Z,77.15
2017-07-14T17:38:16.945Z,77.58
2017-07-14T17:40:46.004Z,78.56
2017-07-14T17:43:15.125Z,77.96
2017-07-14T17:45:44.200Z,78.31
2017-07-14T17:48:13.294Z,77.49
2017-07-14T17:50:42.369Z,77.91
2017-07-14T17:53:11.447Z,78.60
2017-07-14T17:55:40.529Z,78.45
2017-07-14T17:58:09.660Z,79.15
2017-07-14T18:00:38.737Z,77.87
2017-07-14T18:03:07.793Z,77.79
2017-07-14T18:05:36.856Z,77.96
2017-07-14T18:08:05.949Z,77.36
2017-07-14T18:10:35.019Z,77.44
2017-07-14T18:13:04.164Z,78.13
2017-07-14T18:15:33.234Z,78.50
2017-07-14T18:18:02.307Z,78.38
2017-07-14T18:20:31.386Z,78.88
2017-07-14T18:23:00.480Z,79.59
2017-07-14T18:25:29.542Z,79.99
2017-07-14T18:27:58.624Z,79.73
2017-07-14T18:30:27.957Z,80.54
2017-07-14T18:32:57.013Z,80.41
2017-07-14T18:35:26.117Z,80.44
2017-07-14T18:37:55.929Z,79.74
2017-07-14T18:40:25.024Z,79.07
2017-07-14T18:42:54.122Z,78.62
2017-07-14T18:45:23.216Z,77.77
2017-07-14T18:47:52.278Z,78.22
2017-07-14T18:50:21.354Z,77.76
2017-07-14T18:52:50.433Z,76.42
2017-07-14T18:55:19.717Z,73.55
2017-07-14T18:57:49.045Z,73.19
2017-07-14T19:00:18.157Z,73.97
2017-07-14T19:02:47.313Z,73.82
2017-07-14T19:05:16.387Z,74.81
2017-07-14T19:07:45.443Z,74.24
2017-07-14T19:10:14.559Z,74.47
2017-07-14T19:12:44.601Z,72.18
2017-07-14T19:15:13.681Z,70.81
2017-07-14T19:17:44.599Z,69.69
2017-07-14T19:20:15.538Z,69.33
2017-07-14T19:22:44.599Z,68.71
2017-07-14T19:25:13.718Z,69.19
2017-07-14T19:27:42.749Z,69.33
2017-07-14T19:30:12.005Z,69.91
2017-07-14T19:32:41.067Z,70.89
2017-07-14T19:35:10.513Z,70.99
2017-07-14T19:37:39.893Z,70.81
2017-07-14T19:40:08.994Z,71.46
2017-07-14T19:42:38.042Z,71.78
2017-07-14T19:45:07.107Z,71.54
2017-07-14T19:47:36.223Z,72.55
2017-07-14T19:50:05.448Z,72.82
2017-07-14T19:52:34.536Z,72.87
2017-07-14T19:55:03.588Z,73.38
2017-07-14T19:57:32.647Z,73.21
2017-07-14T20:00:01.765Z,73.52
2017-07-14T20:02:31.638Z,73.79
2017-07-14T20:05:00.693Z,74.10
2017-07-14T20:07:30.562Z,74.92
2017-07-14T20:09:59.674Z,74.18
2017-07-14T20:12:28.715Z,73.46
2017-07-14T20:14:58.535Z,73.86
2017-07-14T20:17:28.469Z,74.52
2017-07-14T20:19:57.541Z,74.23
2017-07-14T20:22:26.587Z,75.04
2017-07-14T20:24:55.677Z,75.18
2017-07-14T20:27:24.746Z,75.21
2017-07-14T20:29:53.817Z,75.61
2017-07-14T20:32:23.636Z,76.04
2017-07-14T20:34:52.717Z,76.26
2017-07-14T20:37:21.757Z,76.36
2017-07-14T20:39:50.844Z,76.57
2017-07-14T20:42:19.917Z,76.50
2017-07-14T20:44:48.993Z,76.63
2017-07-14T20:47:18.074Z,77.01
2017-07-14T20:49:47.141Z,76.27
2017-07-14T20:52:16.484Z,76.41
2017-07-14T20:54:45.586Z,76.72
2017-07-14T20:57:14.958Z,76.39
2017-07-14T20:59:44.036Z,75.65
2017-07-14T21:02:13.372Z,75.54
2017-07-14T21:04:42.449Z,74.30
2017-07-14T21:07:11.531Z,73.91
2017-07-14T21:09:40.584Z,72.89
2017-07-14T21:12:09.654Z,73.02
2017-07-14T21:14:38.747Z,72.20
2017-07-14T21:17:08.139Z,72.14
2017-07-14T21:19:37.220Z,72.33
2017-07-14T21:22:06.337Z,71.87
2017-07-14T21:24:35.407Z,73.20
2017-07-14T21:27:04.520Z,71.71
2017-07-14T21:29:33.545Z,71.62
2017-07-14T21:32:03.441Z,71.70
2017-07-14T21:34:32.515Z,72.36
2017-07-14T21:37:01.552Z,71.75
2017-07-14T21:39:31.420Z,71.97
2017-07-14T21:42:00.484Z,71.67
2017-07-14T21:44:29.569Z,71.78
2017-07-14T21:46:59.398Z,72.17
2017-07-14T21:49:28.457Z,71.96
2017-07-14T21:51:57.605Z,73.05
2017-07-14T21:54:28.636Z,73.68
2017-07-14T21:56:57.775Z,73.87
2017-07-14T21:59:26.829Z,73.77
2017-07-14T22:01:56.081Z,74.61
2017-07-14T22:04:25.922Z,74.12
2017-07-14T22:06:54.984Z,74.02
2017-07-14T22:09:24.849Z,74.26
2017-07-14T22:11:53.940Z,74.03
2017-07-14T22:14:22.996Z,73.47
2017-07-14T22:16:52.840Z,73.70
2017-07-14T22:19:21.876Z,73.65
2017-07-14T22:21:50.924Z,73.78
2017-07-14T22:24:20.004Z,74.44
2017-07-14T22:26:49.095Z,74.57
2017-07-14T22:29:18.928Z,75.45
2017-07-14T22:31:47.965Z,75.71
2017-07-14T22:34:17.908Z,75.78
2017-07-14T22:36:46.949Z,75.94
2017-07-14T22:39:16.028Z,76.63
2017-07-14T22:41:45.092Z,76.01
2017-07-14T22:44:14.914Z,76.59
2017-07-14T22:46:43.996Z,76.47
2017-07-14T22:49:14.224Z,76.38
2017-07-14T22:51:43.308Z,76.86
2017-07-14T22:54:12.375Z,76.01
2017-07-14T22:56:41.439Z,76.02
2017-07-14T22:59:10.554Z,75.96
2017-07-14T23:01:39.629Z,75.81
2017-07-14T23:04:09.201Z,75.90
2017-07-14T23:06:38.236Z,75.90
2017-07-14T23:09:07.320Z,76.50
2017-07-14T23:11:36.382Z,77.01
2017-07-14T23:14:05.448Z,77.10
2017-07-14T23:16:34.537Z,77.44
2017-07-14T23:19:03.572Z,77.37
2017-07-14T23:21:32.644Z,77.64
2017-07-14T23:24:01.738Z,77.48
2017-07-14T23:26:30.796Z,77.30
2017-07-14T23:28:59.893Z,77.79
2017-07-14T23:31:28.954Z,77.38
2017-07-14T23:33:58.833Z,77.90
2017-07-14T23:36:27.905Z,77.91
2017-07-14T23:38:56.957Z,77.28
2017-07-14T23:41:26.053Z,77.66
2017-07-14T23:43:55.870Z,78.25
2017-07-14T23:46:25.727Z,78.70
2017-07-14T23:48:54.802Z,79.40
2017-07-14T23:51:26.841Z,79.71
2017-07-14T23:53:56.791Z,78.87
2017-07-14T23:56:25.845Z,78.65
2017-07-14T23:58:55.697Z,79.38
